Terminal Aerodrome Forecast
Issued by NWS Grand Forks, ND

Home | Current Version | Previous Version | Graphics & Text | Print | Product List | Glossary On
Versions: 1 2 3 4 5 6 7 8 9 10 11 12 13 14 15 16 17 18 19
000
FTUS43 KFGF 271700 AAD
TAFFAR
TAF AMD
KFAR 271700Z 2717/2812 14011KT P6SM BKN030
     FM272000 15014G20KT P6SM SCT040
     FM280700 15015G23KT P6SM -TSRA BKN040CB
     FM281000 18013KT P6SM BKN050=

USA.gov is the U.S. government's official web portal to all federal, state and local government web resources and services.